createdAt,value
2018-12-16T00:00:25.385Z,-3.50
2018-12-16T00:02:51.349Z,-4.07
2018-12-16T00:05:17.515Z,-3.62
2018-12-16T00:07:43.371Z,-3.60
2018-12-16T00:10:09.332Z,-3.65
2018-12-16T00:12:35.198Z,-3.49
2018-12-16T00:15:01.068Z,-3.44
2018-12-16T00:17:26.903Z,-3.57
2018-12-16T00:19:52.846Z,-3.76
2018-12-16T00:22:19.251Z,-3.88
2018-12-16T00:24:45.333Z,-3.98
2018-12-16T00:27:11.940Z,-4.00
2018-12-16T00:29:37.958Z,-4.05
2018-12-16T00:32:04.576Z,-4.07
2018-12-16T00:34:30.573Z,-4.11
2018-12-16T00:36:56.449Z,-4.24
2018-12-16T00:39:22.464Z,-4.37
2018-12-16T00:41:48.306Z,-4.52
2018-12-16T00:44:14.294Z,-4.55
2018-12-16T00:46:40.355Z,-4.60
2018-12-16T00:49:06.231Z,-4.69
2018-12-16T00:51:32.209Z,-4.76
2018-12-16T00:53:58.100Z,-4.82
2018-12-16T00:56:23.983Z,-4.88
2018-12-16T00:58:49.831Z,-4.96
2018-12-16T01:01:15.839Z,-4.84
2018-12-16T01:03:41.737Z,-4.81
2018-12-16T01:06:07.663Z,-4.73
2018-12-16T01:08:33.530Z,-4.77
2018-12-16T01:10:59.394Z,-4.87
2018-12-16T01:13:25.237Z,-5.01
2018-12-16T01:15:51.082Z,-5.10
2018-12-16T01:18:16.941Z,-5.22
2018-12-16T01:20:42.865Z,-5.15
2018-12-16T01:23:08.726Z,-5.15
2018-12-16T01:25:34.638Z,-5.17
2018-12-16T01:28:00.493Z,-5.11
2018-12-16T01:30:26.445Z,-5.12
2018-12-16T01:32:52.496Z,-5.03
2018-12-16T01:35:18.397Z,-4.97
2018-12-16T01:37:44.345Z,-5.00
2018-12-16T01:40:10.476Z,-5.02
2018-12-16T01:42:36.405Z,-5.12
2018-12-16T01:45:02.678Z,-5.25
2018-12-16T01:47:28.542Z,-5.19
2018-12-16T01:49:54.584Z,-5.18
2018-12-16T01:52:20.478Z,-5.19
2018-12-16T01:54:46.294Z,-5.19
2018-12-16T01:57:12.355Z,-5.11
2018-12-16T01:59:38.318Z,-5.03
2018-12-16T02:02:04.432Z,-5.02
2018-12-16T02:04:30.305Z,-5.12
2018-12-16T02:06:56.145Z,-5.22
2018-12-16T02:09:21.998Z,-5.18
2018-12-16T02:11:47.830Z,-5.17
2018-12-16T02:14:13.696Z,-5.16
2018-12-16T02:16:39.547Z,-5.24
2018-12-16T02:19:05.480Z,-5.31
2018-12-16T02:21:31.350Z,-5.42
2018-12-16T02:23:57.210Z,-5.29
2018-12-16T02:26:23.102Z,-5.23
2018-12-16T02:28:48.953Z,-5.30
2018-12-16T02:31:14.805Z,-5.38
2018-12-16T02:33:40.684Z,-5.45
2018-12-16T02:36:06.556Z,-5.53
2018-12-16T02:38:32.446Z,-5.57
2018-12-16T02:40:58.302Z,-5.66
2018-12-16T02:43:24.185Z,-5.73
2018-12-16T02:45:50.057Z,-5.67
2018-12-16T02:48:15.966Z,-5.67
2018-12-16T02:50:41.824Z,-5.75
2018-12-16T02:53:07.709Z,-5.91
2018-12-16T02:55:33.666Z,-5.98
2018-12-16T02:57:59.532Z,-6.04
2018-12-16T03:00:25.403Z,-6.09
2018-12-16T03:02:51.359Z,-6.09
2018-12-16T03:05:17.230Z,-6.08
2018-12-16T03:07:43.203Z,-5.95
2018-12-16T03:10:09.129Z,-5.88
2018-12-16T03:12:34.986Z,-5.83
2018-12-16T03:15:00.969Z,-5.68
2018-12-16T03:17:26.838Z,-5.66
2018-12-16T03:19:52.752Z,-5.49
2018-12-16T03:22:18.596Z,-5.47
2018-12-16T03:24:44.481Z,-5.35
2018-12-16T03:27:10.395Z,-5.42
2018-12-16T03:29:36.446Z,-5.48
2018-12-16T03:32:02.418Z,-5.32
2018-12-16T03:34:28.374Z,-5.45
2018-12-16T03:37:01.133Z,-5.51
2018-12-16T03:39:26.963Z,-5.60
2018-12-16T03:41:52.882Z,-5.74
2018-12-16T03:44:18.762Z,-5.66
2018-12-16T03:46:44.957Z,-5.75
2018-12-16T03:49:10.829Z,-5.74
2018-12-16T03:51:36.698Z,-5.87
2018-12-16T03:54:02.684Z,-5.98
2018-12-16T03:56:28.583Z,-6.03
2018-12-16T03:59:06.846Z,-5.93
2018-12-16T04:01:32.737Z,-5.87
2018-12-16T04:03:58.664Z,-5.79
2018-12-16T04:06:24.614Z,-5.77
2018-12-16T04:08:57.443Z,-5.83
2018-12-16T04:11:23.302Z,-5.89
2018-12-16T04:13:49.158Z,-5.81
2018-12-16T04:16:15.018Z,-5.80
2018-12-16T04:18:47.981Z,-5.78
2018-12-16T04:21:13.842Z,-5.75
2018-12-16T04:23:39.747Z,-5.68
2018-12-16T04:26:05.596Z,-6.22
2018-12-16T04:28:38.757Z,-5.71
2018-12-16T04:31:04.646Z,-5.81
2018-12-16T04:33:30.543Z,-5.89
2018-12-16T04:35:56.405Z,-5.80
2018-12-16T04:38:22.374Z,-5.74
2018-12-16T04:40:48.290Z,-5.69
2018-12-16T04:43:14.149Z,-5.63
2018-12-16T04:45:40.074Z,-5.62
2018-12-16T04:48:05.957Z,-5.61
2018-12-16T04:50:32.139Z,-5.63
2018-12-16T04:52:57.982Z,-5.58
2018-12-16T04:55:23.841Z,-5.55
2018-12-16T04:57:49.836Z,-5.54
2018-12-16T05:00:15.979Z,-5.55
2018-12-16T05:02:41.833Z,-5.59
2018-12-16T05:05:07.890Z,-5.58
2018-12-16T05:07:33.737Z,-5.55
2018-12-16T05:10:12.302Z,-5.54
2018-12-16T05:12:38.139Z,-5.53
2018-12-16T05:15:04.093Z,-5.60
2018-12-16T05:17:29.928Z,-5.65
2018-12-16T05:19:55.811Z,-5.61
2018-12-16T05:22:21.651Z,-5.51
2018-12-16T05:24:47.561Z,-5.43
2018-12-16T05:27:13.520Z,-5.31
2018-12-16T05:29:39.358Z,-5.42
2018-12-16T05:32:05.213Z,-5.26
2018-12-16T05:34:31.038Z,-5.33
2018-12-16T05:36:56.880Z,-5.33
2018-12-16T05:39:22.809Z,-5.37
2018-12-16T05:41:48.670Z,-5.37
2018-12-16T05:44:14.553Z,-5.36
2018-12-16T05:46:40.378Z,-5.32
2018-12-16T05:49:06.242Z,-5.38
2018-12-16T05:51:32.080Z,-5.45
2018-12-16T05:53:57.930Z,-5.46
2018-12-16T05:56:23.872Z,-5.44
2018-12-16T05:58:49.706Z,-5.42
2018-12-16T06:01:15.592Z,-5.45
2018-12-16T06:03:41.454Z,-5.44
2018-12-16T06:06:07.321Z,-5.44
2018-12-16T06:08:33.170Z,-5.43
2018-12-16T06:10:59.052Z,-5.44
2018-12-16T06:13:24.962Z,-5.46
2018-12-16T06:15:50.881Z,-5.47
2018-12-16T06:18:16.791Z,-5.46
2018-12-16T06:20:42.797Z,-5.19
2018-12-16T06:23:08.950Z,-5.07
2018-12-16T06:25:34.822Z,-5.15
2018-12-16T06:28:00.681Z,-5.21
2018-12-16T06:30:27.507Z,-5.20
2018-12-16T06:32:53.343Z,-5.12
2018-12-16T06:35:19.215Z,-5.00
2018-12-16T06:37:45.073Z,-5.07
2018-12-16T06:40:10.958Z,-5.06
2018-12-16T06:42:36.811Z,-4.94
2018-12-16T06:45:03.865Z,-4.92
2018-12-16T06:47:29.717Z,-5.01
2018-12-16T06:49:55.551Z,-5.10
2018-12-16T06:52:21.424Z,-5.23
2018-12-16T06:54:47.262Z,-5.35
2018-12-16T06:57:13.141Z,-5.33
2018-12-16T06:59:39.109Z,-5.23
2018-12-16T07:02:05.020Z,-5.35
2018-12-16T07:04:30.878Z,-5.25
2018-12-16T07:06:56.740Z,-5.25
2018-12-16T07:09:22.595Z,-5.18
2018-12-16T07:11:48.678Z,-5.13
2018-12-16T07:14:14.674Z,-5.13
2018-12-16T07:16:40.728Z,-5.05
2018-12-16T07:19:06.734Z,-4.84
2018-12-16T07:21:32.671Z,-4.84
2018-12-16T07:23:58.693Z,-4.80
2018-12-16T07:26:24.613Z,-4.86
2018-12-16T07:28:50.542Z,-4.66
2018-12-16T07:31:16.477Z,-4.76
2018-12-16T07:33:42.437Z,-4.83
2018-12-16T07:36:08.339Z,-4.76
2018-12-16T07:38:34.230Z,-4.65
2018-12-16T07:41:00.082Z,-4.60
2018-12-16T07:43:25.984Z,-4.66
2018-12-16T07:45:51.829Z,-4.69
2018-12-16T07:48:18.251Z,-4.72
2018-12-16T07:50:44.272Z,-4.74
2018-12-16T07:53:10.160Z,-4.69
2018-12-16T07:55:36.059Z,-4.67
2018-12-16T07:58:02.152Z,-4.58
2018-12-16T08:00:28.118Z,-4.59
2018-12-16T08:02:53.955Z,-4.50
2018-12-16T08:05:19.979Z,-4.47
2018-12-16T08:07:45.874Z,-4.45
2018-12-16T08:10:11.707Z,-4.57
2018-12-16T08:12:37.649Z,-4.41
2018-12-16T08:15:04.330Z,-4.20
2018-12-16T08:17:30.226Z,-4.27
2018-12-16T08:19:56.122Z,-4.28
2018-12-16T08:22:22.010Z,-4.20
2018-12-16T08:24:47.835Z,-4.14
2018-12-16T08:27:13.706Z,-4.20
2018-12-16T08:29:39.586Z,-4.22
2018-12-16T08:32:05.479Z,-4.20
2018-12-16T08:34:31.333Z,-4.08
2018-12-16T08:36:57.232Z,-4.09
2018-12-16T08:39:23.062Z,-4.04
2018-12-16T08:41:55.989Z,-3.89
2018-12-16T08:44:21.877Z,-3.81
2018-12-16T08:46:47.751Z,-3.87
2018-12-16T08:49:13.650Z,-3.84
2018-12-16T08:51:39.505Z,-3.85
2018-12-16T08:54:05.389Z,-3.71
2018-12-16T08:56:31.297Z,-3.59
2018-12-16T08:58:57.194Z,-3.59
2018-12-16T09:01:23.088Z,-3.68
2018-12-16T09:03:49.490Z,-3.74
2018-12-16T09:06:15.450Z,-3.78
2018-12-16T09:08:41.646Z,-3.71
2018-12-16T09:11:07.527Z,-3.70
2018-12-16T09:13:33.524Z,-3.52
2018-12-16T09:15:59.425Z,-3.36
2018-12-16T09:18:25.385Z,-3.21
2018-12-16T09:23:43.959Z,-3.07
2018-12-16T09:26:10.343Z,-3.14
2018-12-16T09:28:36.334Z,-3.12
2018-12-16T09:31:02.298Z,-3.09
2018-12-16T09:33:28.257Z,-3.06
2018-12-16T09:35:54.241Z,-3.12
2018-12-16T09:38:20.171Z,-3.08
2018-12-16T09:40:46.046Z,-2.91
2018-12-16T09:43:13.189Z,-2.91
2018-12-16T09:45:39.098Z,-2.83
2018-12-16T09:48:05.017Z,-2.79
2018-12-16T09:50:30.983Z,-2.65
2018-12-16T09:53:03.798Z,-2.68
2018-12-16T09:55:29.667Z,-2.66
2018-12-16T09:57:55.522Z,-2.85
2018-12-16T10:00:21.382Z,-2.78
2018-12-16T10:02:47.255Z,-2.79
2018-12-16T10:05:13.387Z,-2.78
2018-12-16T10:07:40.252Z,-2.66
2018-12-16T10:10:07.235Z,-2.73
2018-12-16T10:12:34.134Z,-2.75
2018-12-16T10:15:00.020Z,-2.64
2018-12-16T10:17:25.906Z,-2.58
2018-12-16T10:19:51.855Z,-2.60
2018-12-16T10:22:17.698Z,-2.59
2018-12-16T10:24:43.614Z,-2.52
2018-12-16T10:27:09.475Z,-2.55
2018-12-16T10:29:35.541Z,-2.44
2018-12-16T10:32:01.389Z,-2.55
2018-12-16T10:34:27.269Z,-2.36
2018-12-16T10:36:53.236Z,-2.24
2018-12-16T10:39:19.135Z,-2.26
2018-12-16T10:41:44.985Z,-2.24
2018-12-16T10:44:11.003Z,-2.29
2018-12-16T10:46:36.866Z,-2.24
2018-12-16T10:49:04.876Z,-2.16
2018-12-16T10:51:30.838Z,-2.19
2018-12-16T10:53:56.713Z,-2.21
2018-12-16T10:56:22.592Z,-2.17
2018-12-16T10:58:48.523Z,-2.06
2018-12-16T11:01:20.479Z,-2.07
2018-12-16T11:03:46.315Z,-2.07
2018-12-16T11:06:12.176Z,-2.13
2018-12-16T11:08:38.742Z,-2.11
2018-12-16T11:11:04.655Z,-2.15
2018-12-16T11:13:30.601Z,-2.20
2018-12-16T11:16:03.468Z,-2.20
2018-12-16T11:18:29.366Z,-2.11
2018-12-16T11:20:55.237Z,-2.21
2018-12-16T11:23:21.129Z,-2.23
2018-12-16T11:25:47.087Z,-2.14
2018-12-16T11:28:12.943Z,-2.05
2018-12-16T11:30:38.947Z,-2.07
2018-12-16T11:33:04.924Z,-2.07
2018-12-16T11:35:30.838Z,-2.11
2018-12-16T11:37:56.691Z,-2.20
2018-12-16T11:40:22.581Z,-2.21
2018-12-16T11:42:48.427Z,-2.13
2018-12-16T11:45:14.283Z,-2.14
2018-12-16T11:47:40.146Z,-2.00
2018-12-16T11:50:06.185Z,-2.06
2018-12-16T11:52:32.055Z,-2.11
2018-12-16T11:54:57.907Z,-2.09
2018-12-16T11:57:23.750Z,-2.05
2018-12-16T11:59:49.661Z,-2.04
2018-12-16T12:02:15.601Z,-2.15
2018-12-16T12:04:41.450Z,-2.32
2018-12-16T12:07:07.298Z,-2.39
2018-12-16T12:09:33.161Z,-2.47
2018-12-16T12:11:59.434Z,-2.35
2018-12-16T12:14:26.177Z,-2.24
2018-12-16T12:16:52.206Z,-2.32
2018-12-16T12:19:18.604Z,-2.29
2018-12-16T12:21:44.830Z,-2.35
2018-12-16T12:24:10.694Z,-2.19
2018-12-16T12:26:36.552Z,-2.29
2018-12-16T12:29:02.416Z,-2.27
2018-12-16T12:31:28.379Z,-2.24
2018-12-16T12:33:54.228Z,-2.25
2018-12-16T12:36:20.074Z,-2.40
2018-12-16T12:38:47.983Z,-2.44
2018-12-16T12:41:16.090Z,-2.37
2018-12-16T12:43:41.972Z,-2.39
2018-12-16T12:46:08.858Z,-2.47
2018-12-16T12:48:34.766Z,-2.46
2018-12-16T12:51:00.663Z,-2.55
2018-12-16T12:53:26.491Z,-2.57
2018-12-16T12:55:53.188Z,-2.54
2018-12-16T12:58:19.083Z,-2.46
2018-12-16T13:00:44.998Z,-2.25
2018-12-16T13:03:10.857Z,-2.45
2018-12-16T13:05:37.092Z,-2.41
2018-12-16T13:08:03.388Z,-2.44
2018-12-16T13:10:29.313Z,-2.34
2018-12-16T13:12:57.170Z,-2.36
2018-12-16T13:15:23.232Z,-2.36
2018-12-16T13:17:49.139Z,-2.42
2018-12-16T13:20:15.265Z,-2.41
2018-12-16T13:22:41.185Z,-2.36
2018-12-16T13:25:19.458Z,-4.41
2018-12-16T13:27:45.330Z,-2.30
2018-12-16T13:30:11.259Z,-2.36
2018-12-16T13:32:37.215Z,-2.30
2018-12-16T13:35:04.302Z,-2.37
2018-12-16T13:37:31.123Z,-2.40
2018-12-16T13:39:57.236Z,-2.30
2018-12-16T13:42:26.026Z,-2.28
2018-12-16T13:44:52.309Z,-2.23
2018-12-16T13:47:18.259Z,-2.15
2018-12-16T13:49:44.141Z,-2.28
2018-12-16T13:52:10.018Z,-2.17
2018-12-16T13:54:35.926Z,-2.17
2018-12-16T13:57:01.787Z,-2.12
2018-12-16T13:59:27.623Z,-2.05
2018-12-16T14:01:54.706Z,-2.24
2018-12-16T14:04:20.570Z,-2.19
2018-12-16T14:06:46.428Z,-2.15
2018-12-16T14:09:12.320Z,-2.15
2018-12-16T14:11:38.175Z,-2.24
2018-12-16T14:14:04.067Z,-2.19
2018-12-16T14:16:30.078Z,-2.20
2018-12-16T14:18:55.960Z,-2.37
2018-12-16T14:21:21.834Z,-2.29
2018-12-16T14:23:47.746Z,-1.98
2018-12-16T14:26:13.623Z,-1.95
2018-12-16T14:28:39.502Z,-1.96
2018-12-16T14:31:05.492Z,-2.07
2018-12-16T14:33:31.426Z,-2.14
2018-12-16T14:35:57.308Z,-2.09
2018-12-16T14:38:23.738Z,-2.14
2018-12-16T14:40:49.655Z,-2.17
2018-12-16T14:43:15.547Z,-2.23
2018-12-16T14:45:42.028Z,-2.28
2018-12-16T14:48:08.024Z,-2.19
2018-12-16T14:50:33.905Z,-2.31
2018-12-16T14:52:59.810Z,-2.34
2018-12-16T14:55:25.769Z,-2.35
2018-12-16T14:57:51.663Z,-2.43
2018-12-16T15:00:17.662Z,-2.32
2018-12-16T15:02:43.583Z,-2.37
2018-12-16T15:05:09.616Z,-2.33
2018-12-16T15:07:35.490Z,-2.41
2018-12-16T15:10:02.013Z,-2.84
2018-12-16T15:12:28.169Z,-2.35
2018-12-16T15:14:54.163Z,-2.36
2018-12-16T15:17:20.163Z,-2.50
2018-12-16T15:19:46.058Z,-2.54
2018-12-16T15:22:12.005Z,-2.49
2018-12-16T15:24:37.984Z,-2.43
2018-12-16T15:27:03.874Z,-2.36
2018-12-16T15:29:29.751Z,-2.29
2018-12-16T15:31:55.594Z,-2.27
2018-12-16T15:34:21.528Z,-2.35
2018-12-16T15:36:47.390Z,-2.44
2018-12-16T15:39:13.262Z,-2.47
2018-12-16T15:41:39.175Z,-2.50
2018-12-16T15:44:05.094Z,-2.48
2018-12-16T15:46:31.037Z,-2.48
2018-12-16T15:48:56.897Z,-2.47
2018-12-16T15:51:22.802Z,-2.43
2018-12-16T15:53:48.681Z,-2.35
2018-12-16T15:56:14.584Z,-2.29
2018-12-16T15:58:40.651Z,-2.27
2018-12-16T16:01:06.568Z,-2.18
2018-12-16T16:03:32.554Z,-2.10
2018-12-16T16:05:58.543Z,-2.16
2018-12-16T16:08:24.427Z,-2.19
2018-12-16T16:10:50.300Z,-2.23
2018-12-16T16:13:16.183Z,-2.25
2018-12-16T16:15:42.085Z,-2.34
2018-12-16T16:18:07.930Z,-2.32
2018-12-16T16:20:33.783Z,-2.31
2018-12-16T16:22:59.862Z,-2.29
2018-12-16T16:25:25.887Z,-2.22
2018-12-16T16:27:51.801Z,-2.23
2018-12-16T16:30:17.708Z,-2.14
2018-12-16T16:32:43.564Z,-2.06
2018-12-16T16:35:09.490Z,-2.04
2018-12-16T16:37:35.392Z,-1.97
2018-12-16T16:40:01.256Z,-2.11
2018-12-16T16:42:27.138Z,-2.02
2018-12-16T16:44:53.039Z,-1.99
2018-12-16T16:47:18.947Z,-2.06
2018-12-16T16:49:44.846Z,-1.94
2018-12-16T16:52:10.904Z,-1.95
2018-12-16T16:54:36.782Z,-1.88
2018-12-16T16:57:02.644Z,-1.98
2018-12-16T16:59:28.516Z,-2.07
2018-12-16T17:01:54.373Z,-2.07
2018-12-16T17:04:20.222Z,-2.06
2018-12-16T17:06:46.086Z,-2.03
2018-12-16T17:09:12.097Z,-2.04
2018-12-16T17:11:37.986Z,-2.11
2018-12-16T17:14:03.839Z,-2.12
2018-12-16T17:16:29.819Z,-2.17
2018-12-16T17:18:57.524Z,-2.09
2018-12-16T17:21:23.728Z,-2.06
2018-12-16T17:23:49.619Z,-2.02
2018-12-16T17:26:15.508Z,-2.02
2018-12-16T17:28:41.374Z,-2.05
2018-12-16T17:31:07.289Z,-1.98
2018-12-16T17:33:33.183Z,-2.02
2018-12-16T17:35:59.184Z,-2.03
2018-12-16T17:38:25.193Z,-1.80
2018-12-16T17:40:51.181Z,-1.70
2018-12-16T17:43:17.235Z,-1.71
2018-12-16T17:45:43.133Z,-1.84
2018-12-16T17:48:09.018Z,-1.69
2018-12-16T17:50:34.972Z,-1.77
2018-12-16T17:53:00.853Z,-1.83
2018-12-16T17:55:26.709Z,-2.45
2018-12-16T17:57:52.595Z,-1.93
2018-12-16T18:00:18.866Z,-1.91
2018-12-16T18:02:44.844Z,-1.94
2018-12-16T18:05:10.763Z,-1.93
2018-12-16T18:07:36.650Z,-1.82
2018-12-16T18:10:03.420Z,-1.77
2018-12-16T18:12:29.283Z,-1.84
2018-12-16T18:14:55.155Z,-1.78
2018-12-16T18:17:21.010Z,-1.56
2018-12-16T18:19:46.887Z,-1.60
2018-12-16T18:22:14.187Z,-1.66
2018-12-16T18:24:40.386Z,-1.70
2018-12-16T18:27:06.351Z,-1.75
2018-12-16T18:29:32.269Z,-1.77
2018-12-16T18:31:58.212Z,-1.82
2018-12-16T18:34:24.641Z,-1.88
2018-12-16T18:36:50.540Z,-1.91
2018-12-16T18:39:16.390Z,-1.80
2018-12-16T18:41:42.676Z,-1.60
2018-12-16T18:44:08.554Z,-1.50
2018-12-16T18:46:34.457Z,-1.49
2018-12-16T18:49:00.409Z,-1.53
2018-12-16T18:51:26.273Z,-1.63
2018-12-16T18:53:52.123Z,-1.50
2018-12-16T18:56:17.999Z,-1.50
2018-12-16T18:58:43.880Z,-1.46
2018-12-16T19:01:09.761Z,-1.46
2018-12-16T19:03:35.668Z,-1.46
2018-12-16T19:06:01.570Z,-1.47
2018-12-16T19:08:27.495Z,-1.45
2018-12-16T19:10:53.444Z,-1.46
2018-12-16T19:13:19.366Z,-1.48
2018-12-16T19:15:45.267Z,-1.55
2018-12-16T19:18:11.214Z,-1.49
2018-12-16T19:20:37.124Z,-1.44
2018-12-16T19:23:03.153Z,-1.38
2018-12-16T19:25:29.620Z,-1.39
2018-12-16T19:27:55.531Z,-1.54
2018-12-16T19:30:21.451Z,-1.50
2018-12-16T19:32:47.331Z,-1.57
2018-12-16T19:35:13.311Z,-1.60
2018-12-16T19:37:39.186Z,-1.59
2018-12-16T19:40:05.224Z,-1.54
2018-12-16T19:42:31.098Z,-1.48
2018-12-16T19:44:56.993Z,-1.46
2018-12-16T19:47:22.891Z,-1.51
2018-12-16T19:49:48.762Z,-1.50
2018-12-16T19:52:14.671Z,-1.45
2018-12-16T19:54:40.980Z,-1.47
2018-12-16T19:57:07.576Z,-1.32
2018-12-16T19:59:33.468Z,-1.48
2018-12-16T20:04:58.432Z,-1.42
2018-12-16T20:07:24.377Z,-1.51
2018-12-16T20:09:50.387Z,-1.40
2018-12-16T20:12:16.681Z,-1.25
2018-12-16T20:14:43.266Z,-1.40
2018-12-16T20:17:09.316Z,-1.41
2018-12-16T20:19:35.266Z,-1.49
2018-12-16T20:22:01.259Z,-1.52
2018-12-16T20:24:27.314Z,-1.47
2018-12-16T20:26:53.277Z,-1.42
2018-12-16T20:29:19.182Z,-1.49
2018-12-16T20:31:45.096Z,-1.43
2018-12-16T20:34:11.154Z,-1.50
2018-12-16T20:36:37.068Z,-1.32
2018-12-16T20:39:04.801Z,-1.40
2018-12-16T20:41:30.755Z,-1.45
2018-12-16T20:44:03.780Z,-1.53
2018-12-16T20:46:29.768Z,-1.44
2018-12-16T20:48:55.770Z,-1.46
2018-12-16T20:51:21.614Z,-1.43
2018-12-16T20:53:47.514Z,-1.51
2018-12-16T20:56:13.586Z,-1.51
2018-12-16T20:58:39.515Z,-1.55
2018-12-16T21:01:05.552Z,-1.55
2018-12-16T21:03:31.475Z,-1.57
2018-12-16T21:05:57.373Z,-1.54
2018-12-16T21:08:23.299Z,-1.58
2018-12-16T21:10:49.207Z,-1.61
2018-12-16T21:13:21.299Z,-1.61
2018-12-16T21:15:53.346Z,-1.60
2018-12-16T21:18:21.998Z,-1.61
2018-12-16T21:20:47.863Z,-1.64
2018-12-16T21:23:13.710Z,-1.62
2018-12-16T21:25:40.121Z,-1.65
2018-12-16T21:28:06.223Z,-1.64
2018-12-16T21:30:32.425Z,-1.65
2018-12-16T21:33:00.201Z,-1.66
2018-12-16T21:35:26.166Z,-1.65
2018-12-16T21:37:52.046Z,-1.63
2018-12-16T21:40:18.058Z,-1.65
2018-12-16T21:42:43.923Z,-1.65
2018-12-16T21:45:09.794Z,-1.68
2018-12-16T21:47:35.681Z,-1.67
2018-12-16T21:50:02.342Z,-1.66
2018-12-16T21:52:28.222Z,-1.66
2018-12-16T21:54:54.377Z,-1.70
2018-12-16T21:57:20.403Z,-1.69
2018-12-16T21:59:46.313Z,-1.59
2018-12-16T22:02:12.204Z,-1.61
2018-12-16T22:04:38.320Z,-1.57
2018-12-16T22:07:04.255Z,-1.50
2018-12-16T22:09:30.262Z,-1.47
2018-12-16T22:11:56.126Z,-1.53
2018-12-16T22:14:22.051Z,-1.41
2018-12-16T22:16:47.967Z,-1.39
2018-12-16T22:19:13.811Z,-1.46
2018-12-16T22:21:39.808Z,-1.50
2018-12-16T22:24:06.227Z,-1.56
2018-12-16T22:26:32.411Z,-1.57
2018-12-16T22:28:58.259Z,-1.47
2018-12-16T22:31:25.125Z,-1.32
2018-12-16T22:33:51.124Z,-1.35
2018-12-16T22:36:17.452Z,-1.43
2018-12-16T22:38:43.403Z,-1.46
2018-12-16T22:41:09.264Z,-1.49
2018-12-16T22:43:35.165Z,-1.45
2018-12-16T22:46:03.919Z,-1.37
2018-12-16T22:48:29.875Z,-1.23
2018-12-16T22:50:55.782Z,-1.31
2018-12-16T22:53:21.628Z,-1.13
2018-12-16T22:55:47.603Z,-1.10
2018-12-16T22:58:13.566Z,-1.13
2018-12-16T23:00:47.780Z,-1.18
2018-12-16T23:03:13.681Z,-1.24
2018-12-16T23:05:39.522Z,-1.30
2018-12-16T23:08:05.384Z,-1.40
2018-12-16T23:10:31.261Z,-1.44
2018-12-16T23:12:57.182Z,-1.48
2018-12-16T23:15:23.093Z,-1.49
2018-12-16T23:17:48.956Z,-1.49
2018-12-16T23:20:17.229Z,-1.47
2018-12-16T23:22:43.099Z,-1.46
2018-12-16T23:25:09.459Z,-1.47
2018-12-16T23:27:35.379Z,-1.51
2018-12-16T23:30:01.298Z,-1.53
2018-12-16T23:32:27.158Z,-1.52
2018-12-16T23:34:53.061Z,-1.49
2018-12-16T23:37:18.930Z,-1.53
2018-12-16T23:39:44.787Z,-1.53
2018-12-16T23:42:10.625Z,-1.51
2018-12-16T23:44:36.746Z,-1.51
2018-12-16T23:47:02.582Z,-1.48
2018-12-16T23:49:28.460Z,-1.46
2018-12-16T23:51:54.315Z,-1.44
2018-12-16T23:54:20.145Z,-1.44
2018-12-16T23:56:46.109Z,-1.42
2018-12-16T23:59:11.971Z,-1.42
